KCSQ/CSQ METAR and TAF weather

Enter ICAO airport designator
Station Type Date Time Source
KCSQ METAR 2018/01/19 23:15 UTC NOAA

KCSQ 192315Z AUTO 21014KT 10SM CLR 04/M01 A2970 RMK AO2


Station Type Date Time Source
KCSQ Decoded METAR 2018/01/19 23:15 UTC NOAA

Creston, IA, United States (KCSQ) 41-01N 094-22W
Jan 19, 2018 - 06:15 PM EST / 2018.01.19 2315 UTC
Wind: from the SSW (210 degrees) at 16 MPH (14 KT):0
Visibility: 10 mile(s):0
Sky conditions: clear
Temperature: 39 F (4 C)
Dew Point: 30 F (-1 C)
Relative Humidity: 69%
Pressure (altimeter): 29.7 in. Hg (1005 hPa)
ob: KCSQ 192315Z AUTO 21014KT 10SM CLR 04/M01 A2970 RMK AO2
cycle: 23

Station Type Date Time Source
KCSQ TAF UTC NOAA

Error!


Example: see airport list